sensor_id;sensor_type;location;lat;lon;timestamp;P1;durP1;ratioP1;P2;durP2;ratioP2
19004;SDS011;9635;52.078;8.648;2022-09-09T00:01:31;2.10;;;0.80;;
19004;SDS011;9635;52.078;8.648;2022-09-09T00:06:43;4.40;;;0.90;;
19004;SDS011;9635;52.078;8.648;2022-09-09T00:11:49;5.30;;;1.02;;
19004;SDS011;9635;52.078;8.648;2022-09-09T00:16:58;4.13;;;0.93;;
19004;SDS011;9635;52.078;8.648;2022-09-09T00:22:08;3.90;;;0.60;;
19004;SDS011;9635;52.078;8.648;2022-09-09T00:32:27;5.35;;;0.90;;
19004;SDS011;9635;52.078;8.648;2022-09-09T00:37:32;4.35;;;0.73;;
19004;SDS011;9635;52.078;8.648;2022-09-09T00:42:38;3.13;;;0.90;;
19004;SDS011;9635;52.078;8.648;2022-09-09T00:47:46;2.03;;;0.73;;
19004;SDS011;9635;52.078;8.648;2022-09-09T00:52:55;3.38;;;0.70;;
19004;SDS011;9635;52.078;8.648;2022-09-09T00:58:07;4.22;;;1.00;;
19004;SDS011;9635;52.078;8.648;2022-09-09T01:03:17;3.20;;;0.80;;
19004;SDS011;9635;52.078;8.648;2022-09-09T01:08:30;1.92;;;0.90;;
19004;SDS011;9635;52.078;8.648;2022-09-09T01:13:52;5.28;;;1.25;;
19004;SDS011;9635;52.078;8.648;2022-09-09T01:19:03;2.93;;;1.10;;
19004;SDS011;9635;52.078;8.648;2022-09-09T01:24:15;3.90;;;1.40;;
19004;SDS011;9635;52.078;8.648;2022-09-09T01:29:37;3.60;;;1.08;;
19004;SDS011;9635;52.078;8.648;2022-09-09T01:34:41;2.95;;;1.20;;
19004;SDS011;9635;52.078;8.648;2022-09-09T01:39:44;2.70;;;1.38;;
19004;SDS011;9635;52.078;8.648;2022-09-09T01:44:51;2.63;;;1.10;;
19004;SDS011;9635;52.078;8.648;2022-09-09T01:49:55;5.70;;;1.48;;
19004;SDS011;9635;52.078;8.648;2022-09-09T01:55:01;5.05;;;1.20;;
19004;SDS011;9635;52.078;8.648;2022-09-09T02:00:13;2.03;;;0.90;;
19004;SDS011;9635;52.078;8.648;2022-09-09T02:05:20;3.50;;;1.42;;
19004;SDS011;9635;52.078;8.648;2022-09-09T02:10:33;3.47;;;1.10;;
19004;SDS011;9635;52.078;8.648;2022-09-09T02:15:55;5.97;;;1.15;;
19004;SDS011;9635;52.078;8.648;2022-09-09T02:21:02;3.70;;;0.95;;
19004;SDS011;9635;52.078;8.648;2022-09-09T02:26:05;2.85;;;1.00;;
19004;SDS011;9635;52.078;8.648;2022-09-09T02:31:11;1.92;;;1.25;;
19004;SDS011;9635;52.078;8.648;2022-09-09T02:36:16;5.88;;;1.23;;
19004;SDS011;9635;52.078;8.648;2022-09-09T02:41:23;2.83;;;1.23;;
19004;SDS011;9635;52.078;8.648;2022-09-09T02:46:35;2.05;;;0.70;;
19004;SDS011;9635;52.078;8.648;2022-09-09T02:51:50;1.50;;;0.73;;
19004;SDS011;9635;52.078;8.648;2022-09-09T02:56:59;3.53;;;1.10;;
19004;SDS011;9635;52.078;8.648;2022-09-09T03:02:12;1.30;;;0.73;;
19004;SDS011;9635;52.078;8.648;2022-09-09T03:07:18;2.60;;;1.02;;
19004;SDS011;9635;52.078;8.648;2022-09-09T03:12:24;2.03;;;1.10;;
19004;SDS011;9635;52.078;8.648;2022-09-09T03:17:28;3.63;;;1.02;;
19004;SDS011;9635;52.078;8.648;2022-09-09T03:22:32;4.25;;;1.40;;
19004;SDS011;9635;52.078;8.648;2022-09-09T03:27:35;4.93;;;1.70;;
19004;SDS011;9635;52.078;8.648;2022-09-09T03:32:40;6.00;;;1.20;;
19004;SDS011;9635;52.078;8.648;2022-09-09T03:37:49;2.72;;;1.17;;
19004;SDS011;9635;52.078;8.648;2022-09-09T03:42:52;5.72;;;1.30;;
19004;SDS011;9635;52.078;8.648;2022-09-09T03:47:57;2.85;;;1.30;;
19004;SDS011;9635;52.078;8.648;2022-09-09T03:53:00;4.80;;;1.30;;
19004;SDS011;9635;52.078;8.648;2022-09-09T03:58:02;2.92;;;1.60;;
19004;SDS011;9635;52.078;8.648;2022-09-09T04:03:10;5.07;;;1.30;;
19004;SDS011;9635;52.078;8.648;2022-09-09T04:08:13;1.70;;;0.73;;
19004;SDS011;9635;52.078;8.648;2022-09-09T04:13:17;2.60;;;1.25;;
19004;SDS011;9635;52.078;8.648;2022-09-09T04:18:23;5.93;;;1.20;;
19004;SDS011;9635;52.078;8.648;2022-09-09T04:23:27;3.67;;;1.17;;
19004;SDS011;9635;52.078;8.648;2022-09-09T04:28:33;3.03;;;1.10;;
19004;SDS011;9635;52.078;8.648;2022-09-09T04:33:42;3.53;;;1.08;;
19004;SDS011;9635;52.078;8.648;2022-09-09T04:38:45;4.53;;;1.15;;
19004;SDS011;9635;52.078;8.648;2022-09-09T04:43:48;2.47;;;1.10;;
19004;SDS011;9635;52.078;8.648;2022-09-09T04:48:53;4.13;;;1.13;;
19004;SDS011;9635;52.078;8.648;2022-09-09T04:54:00;4.00;;;1.50;;
19004;SDS011;9635;52.078;8.648;2022-09-09T04:59:04;1.92;;;1.50;;
19004;SDS011;9635;52.078;8.648;2022-09-09T05:04:16;3.92;;;1.73;;
19004;SDS011;9635;52.078;8.648;2022-09-09T05:09:21;4.78;;;2.00;;
19004;SDS011;9635;52.078;8.648;2022-09-09T05:14:25;5.22;;;2.28;;
19004;SDS011;9635;52.078;8.648;2022-09-09T05:19:30;5.25;;;2.33;;
19004;SDS011;9635;52.078;8.648;2022-09-09T05:24:33;4.38;;;1.55;;
19004;SDS011;9635;52.078;8.648;2022-09-09T05:29:37;7.55;;;2.40;;
19004;SDS011;9635;52.078;8.648;2022-09-09T05:34:43;6.40;;;2.00;;
19004;SDS011;9635;52.078;8.648;2022-09-09T05:39:46;3.92;;;1.55;;
19004;SDS011;9635;52.078;8.648;2022-09-09T05:44:51;7.53;;;1.98;;
19004;SDS011;9635;52.078;8.648;2022-09-09T05:49:57;5.35;;;1.88;;
19004;SDS011;9635;52.078;8.648;2022-09-09T05:55:00;2.92;;;2.60;;
19004;SDS011;9635;52.078;8.648;2022-09-09T06:00:05;7.18;;;2.47;;
19004;SDS011;9635;52.078;8.648;2022-09-09T06:05:15;3.67;;;1.70;;
19004;SDS011;9635;52.078;8.648;2022-09-09T06:10:19;4.68;;;2.22;;
19004;SDS011;9635;52.078;8.648;2022-09-09T06:15:23;6.25;;;2.25;;
19004;SDS011;9635;52.078;8.648;2022-09-09T06:20:27;6.72;;;2.00;;
19004;SDS011;9635;52.078;8.648;2022-09-09T06:25:32;5.60;;;2.75;;
19004;SDS011;9635;52.078;8.648;2022-09-09T06:30:36;3.80;;;2.35;;
19004;SDS011;9635;52.078;8.648;2022-09-09T06:35:41;3.97;;;2.20;;
19004;SDS011;9635;52.078;8.648;2022-09-09T06:40:50;2.45;;;2.10;;
19004;SDS011;9635;52.078;8.648;2022-09-09T06:45:54;4.25;;;2.28;;
19004;SDS011;9635;52.078;8.648;2022-09-09T06:51:04;7.25;;;2.45;;
19004;SDS011;9635;52.078;8.648;2022-09-09T06:56:20;5.82;;;2.33;;
19004;SDS011;9635;52.078;8.648;2022-09-09T07:01:27;4.32;;;1.35;;
19004;SDS011;9635;52.078;8.648;2022-09-09T07:06:36;6.22;;;1.52;;
19004;SDS011;9635;52.078;8.648;2022-09-09T07:11:44;7.65;;;1.92;;
19004;SDS011;9635;52.078;8.648;2022-09-09T07:16:50;5.30;;;1.65;;
19004;SDS011;9635;52.078;8.648;2022-09-09T07:22:01;4.78;;;1.58;;
19004;SDS011;9635;52.078;8.648;2022-09-09T07:27:05;4.93;;;1.95;;
19004;SDS011;9635;52.078;8.648;2022-09-09T07:32:10;4.25;;;1.45;;
19004;SDS011;9635;52.078;8.648;2022-09-09T07:37:15;2.60;;;1.13;;
19004;SDS011;9635;52.078;8.648;2022-09-09T07:42:19;5.53;;;1.50;;
19004;SDS011;9635;52.078;8.648;2022-09-09T07:47:23;7.03;;;1.98;;
19004;SDS011;9635;52.078;8.648;2022-09-09T07:52:27;5.70;;;1.58;;
19004;SDS011;9635;52.078;8.648;2022-09-09T07:57:34;5.85;;;1.48;;
19004;SDS011;9635;52.078;8.648;2022-09-09T08:02:38;8.02;;;2.00;;
19004;SDS011;9635;52.078;8.648;2022-09-09T08:07:44;6.25;;;1.38;;
19004;SDS011;9635;52.078;8.648;2022-09-09T08:12:47;3.97;;;1.50;;
19004;SDS011;9635;52.078;8.648;2022-09-09T08:18:11;3.78;;;0.95;;
19004;SDS011;9635;52.078;8.648;2022-09-09T08:23:15;4.22;;;1.20;;
19004;SDS011;9635;52.078;8.648;2022-09-09T08:28:18;4.28;;;1.40;;
19004;SDS011;9635;52.078;8.648;2022-09-09T08:33:22;6.10;;;1.05;;
19004;SDS011;9635;52.078;8.648;2022-09-09T08:38:28;6.03;;;1.27;;
19004;SDS011;9635;52.078;8.648;2022-09-09T08:43:31;3.13;;;1.10;;
19004;SDS011;9635;52.078;8.648;2022-09-09T08:48:41;3.67;;;1.30;;
19004;SDS011;9635;52.078;8.648;2022-09-09T08:53:57;3.60;;;1.30;;
19004;SDS011;9635;52.078;8.648;2022-09-09T08:59:02;2.92;;;1.10;;
19004;SDS011;9635;52.078;8.648;2022-09-09T09:04:26;3.83;;;1.15;;
19004;SDS011;9635;52.078;8.648;2022-09-09T09:09:45;7.60;;;1.73;;
19004;SDS011;9635;52.078;8.648;2022-09-09T09:15:01;4.35;;;1.30;;
19004;SDS011;9635;52.078;8.648;2022-09-09T09:20:05;4.30;;;1.10;;
19004;SDS011;9635;52.078;8.648;2022-09-09T09:25:17;5.55;;;1.17;;
19004;SDS011;9635;52.078;8.648;2022-09-09T09:30:23;6.25;;;1.10;;
19004;SDS011;9635;52.078;8.648;2022-09-09T09:35:37;3.88;;;1.00;;
19004;SDS011;9635;52.078;8.648;2022-09-09T09:40:52;1.50;;;0.60;;
19004;SDS011;9635;52.078;8.648;2022-09-09T09:46:00;2.33;;;0.63;;
19004;SDS011;9635;52.078;8.648;2022-09-09T09:51:19;3.65;;;1.20;;
19004;SDS011;9635;52.078;8.648;2022-09-09T09:56:27;3.38;;;0.88;;
19004;SDS011;9635;52.078;8.648;2022-09-09T10:01:32;2.85;;;1.30;;
19004;SDS011;9635;52.078;8.648;2022-09-09T10:06:43;1.70;;;0.93;;
19004;SDS011;9635;52.078;8.648;2022-09-09T10:11:48;4.30;;;0.90;;
19004;SDS011;9635;52.078;8.648;2022-09-09T10:17:04;5.93;;;0.93;;
19004;SDS011;9635;52.078;8.648;2022-09-09T10:22:21;5.40;;;1.23;;
19004;SDS011;9635;52.078;8.648;2022-09-09T10:27:32;2.60;;;1.05;;
19004;SDS011;9635;52.078;8.648;2022-09-09T10:32:45;6.13;;;1.10;;
19004;SDS011;9635;52.078;8.648;2022-09-09T10:37:57;4.97;;;0.95;;
19004;SDS011;9635;52.078;8.648;2022-09-09T10:43:19;1.85;;;0.80;;
19004;SDS011;9635;52.078;8.648;2022-09-09T10:48:35;6.93;;;1.60;;
19004;SDS011;9635;52.078;8.648;2022-09-09T10:53:53;4.40;;;1.00;;
19004;SDS011;9635;52.078;8.648;2022-09-09T10:59:10;3.67;;;0.88;;
19004;SDS011;9635;52.078;8.648;2022-09-09T11:04:17;3.63;;;0.98;;
19004;SDS011;9635;52.078;8.648;2022-09-09T11:09:25;3.42;;;0.77;;
19004;SDS011;9635;52.078;8.648;2022-09-09T11:14:36;3.78;;;1.38;;
19004;SDS011;9635;52.078;8.648;2022-09-09T11:19:42;2.55;;;0.80;;
19004;SDS011;9635;52.078;8.648;2022-09-09T11:24:47;5.65;;;0.82;;
19004;SDS011;9635;52.078;8.648;2022-09-09T11:30:02;3.08;;;1.20;;
19004;SDS011;9635;52.078;8.648;2022-09-09T11:35:38;3.55;;;1.08;;
19004;SDS011;9635;52.078;8.648;2022-09-09T11:40:54;2.88;;;0.90;;
19004;SDS011;9635;52.078;8.648;2022-09-09T11:46:01;2.70;;;0.85;;
19004;SDS011;9635;52.078;8.648;2022-09-09T11:51:06;5.60;;;1.10;;
19004;SDS011;9635;52.078;8.648;2022-09-09T11:56:27;3.53;;;0.90;;
19004;SDS011;9635;52.078;8.648;2022-09-09T12:01:37;4.20;;;0.95;;
19004;SDS011;9635;52.078;8.648;2022-09-09T12:06:44;2.67;;;0.80;;
19004;SDS011;9635;52.078;8.648;2022-09-09T12:11:48;2.60;;;1.08;;
19004;SDS011;9635;52.078;8.648;2022-09-09T12:16:53;2.85;;;1.25;;
19004;SDS011;9635;52.078;8.648;2022-09-09T12:21:58;3.03;;;1.63;;
19004;SDS011;9635;52.078;8.648;2022-09-09T12:27:11;4.65;;;0.65;;
19004;SDS011;9635;52.078;8.648;2022-09-09T12:32:23;1.42;;;0.65;;
19004;SDS011;9635;52.078;8.648;2022-09-09T12:37:29;5.13;;;0.88;;
19004;SDS011;9635;52.078;8.648;2022-09-09T12:42:39;3.92;;;0.80;;
19004;SDS011;9635;52.078;8.648;2022-09-09T12:47:45;2.72;;;0.80;;
19004;SDS011;9635;52.078;8.648;2022-09-09T12:52:51;2.38;;;0.57;;
19004;SDS011;9635;52.078;8.648;2022-09-09T12:57:56;2.15;;;1.15;;
19004;SDS011;9635;52.078;8.648;2022-09-09T13:03:13;2.75;;;0.50;;
19004;SDS011;9635;52.078;8.648;2022-09-09T13:08:19;3.08;;;0.80;;
19004;SDS011;9635;52.078;8.648;2022-09-09T13:13:23;2.55;;;0.82;;
19004;SDS011;9635;52.078;8.648;2022-09-09T13:18:33;2.33;;;0.70;;
19004;SDS011;9635;52.078;8.648;2022-09-09T13:23:39;3.80;;;1.55;;
19004;SDS011;9635;52.078;8.648;2022-09-09T13:28:42;1.75;;;0.80;;
19004;SDS011;9635;52.078;8.648;2022-09-09T13:33:48;3.17;;;1.02;;
19004;SDS011;9635;52.078;8.648;2022-09-09T13:38:55;4.07;;;1.00;;
19004;SDS011;9635;52.078;8.648;2022-09-09T13:44:00;5.82;;;1.10;;
19004;SDS011;9635;52.078;8.648;2022-09-09T13:49:19;3.78;;;0.80;;
19004;SDS011;9635;52.078;8.648;2022-09-09T13:54:24;3.45;;;0.50;;
19004;SDS011;9635;52.078;8.648;2022-09-09T13:59:27;2.45;;;1.13;;
19004;SDS011;9635;52.078;8.648;2022-09-09T14:04:51;3.90;;;0.55;;
19004;SDS011;9635;52.078;8.648;2022-09-09T14:09:56;1.85;;;0.60;;
19004;SDS011;9635;52.078;8.648;2022-09-09T14:15:02;2.55;;;0.50;;
19004;SDS011;9635;52.078;8.648;2022-09-09T14:20:07;4.95;;;0.70;;
19004;SDS011;9635;52.078;8.648;2022-09-09T14:25:11;1.30;;;0.43;;
19004;SDS011;9635;52.078;8.648;2022-09-09T14:30:15;4.88;;;0.50;;
19004;SDS011;9635;52.078;8.648;2022-09-09T14:35:20;1.42;;;0.57;;
19004;SDS011;9635;52.078;8.648;2022-09-09T14:40:23;4.82;;;0.68;;
19004;SDS011;9635;52.078;8.648;2022-09-09T14:45:26;1.40;;;0.60;;
19004;SDS011;9635;52.078;8.648;2022-09-09T14:50:31;3.10;;;0.60;;
19004;SDS011;9635;52.078;8.648;2022-09-09T14:55:34;2.92;;;0.47;;
19004;SDS011;9635;52.078;8.648;2022-09-09T15:00:37;3.42;;;0.88;;
19004;SDS011;9635;52.078;8.648;2022-09-09T15:05:41;1.55;;;0.43;;
19004;SDS011;9635;52.078;8.648;2022-09-09T15:10:44;3.33;;;0.68;;
19004;SDS011;9635;52.078;8.648;2022-09-09T15:15:48;1.08;;;0.55;;
19004;SDS011;9635;52.078;8.648;2022-09-09T15:20:53;2.50;;;0.77;;
19004;SDS011;9635;52.078;8.648;2022-09-09T15:25:58;1.73;;;0.50;;
19004;SDS011;9635;52.078;8.648;2022-09-09T15:31:01;2.35;;;0.60;;
19004;SDS011;9635;52.078;8.648;2022-09-09T15:36:13;1.17;;;0.68;;
19004;SDS011;9635;52.078;8.648;2022-09-09T15:41:19;1.90;;;0.50;;
19004;SDS011;9635;52.078;8.648;2022-09-09T15:46:24;2.67;;;0.88;;
19004;SDS011;9635;52.078;8.648;2022-09-09T15:51:31;1.13;;;0.60;;
19004;SDS011;9635;52.078;8.648;2022-09-09T15:56:50;5.55;;;1.08;;
19004;SDS011;9635;52.078;8.648;2022-09-09T16:01:56;2.67;;;0.60;;
19004;SDS011;9635;52.078;8.648;2022-09-09T16:07:03;3.15;;;0.70;;
19004;SDS011;9635;52.078;8.648;2022-09-09T16:12:07;2.72;;;0.82;;
19004;SDS011;9635;52.078;8.648;2022-09-09T16:17:13;3.25;;;0.77;;
19004;SDS011;9635;52.078;8.648;2022-09-09T16:22:18;0.88;;;0.57;;
19004;SDS011;9635;52.078;8.648;2022-09-09T16:27:23;4.45;;;0.85;;
19004;SDS011;9635;52.078;8.648;2022-09-09T16:32:26;3.28;;;0.70;;
19004;SDS011;9635;52.078;8.648;2022-09-09T16:37:30;4.57;;;0.68;;
19004;SDS011;9635;52.078;8.648;2022-09-09T16:42:35;2.83;;;0.65;;
19004;SDS011;9635;52.078;8.648;2022-09-09T16:47:40;3.25;;;0.77;;
19004;SDS011;9635;52.078;8.648;2022-09-09T16:52:44;1.25;;;0.60;;
19004;SDS011;9635;52.078;8.648;2022-09-09T16:57:47;2.30;;;1.00;;
19004;SDS011;9635;52.078;8.648;2022-09-09T17:02:50;3.55;;;0.80;;
19004;SDS011;9635;52.078;8.648;2022-09-09T17:07:55;4.13;;;1.00;;
19004;SDS011;9635;52.078;8.648;2022-09-09T17:12:58;2.65;;;0.63;;
19004;SDS011;9635;52.078;8.648;2022-09-09T17:18:02;1.33;;;0.68;;
19004;SDS011;9635;52.078;8.648;2022-09-09T17:23:07;4.85;;;1.30;;
19004;SDS011;9635;52.078;8.648;2022-09-09T17:28:11;5.30;;;1.33;;
19004;SDS011;9635;52.078;8.648;2022-09-09T17:33:14;4.22;;;1.17;;
19004;SDS011;9635;52.078;8.648;2022-09-09T17:38:18;1.73;;;0.90;;
19004;SDS011;9635;52.078;8.648;2022-09-09T17:43:26;4.00;;;1.10;;
19004;SDS011;9635;52.078;8.648;2022-09-09T17:48:29;4.95;;;1.45;;
19004;SDS011;9635;52.078;8.648;2022-09-09T17:53:37;6.72;;;1.35;;
19004;SDS011;9635;52.078;8.648;2022-09-09T17:58:41;3.97;;;1.35;;
19004;SDS011;9635;52.078;8.648;2022-09-09T18:03:44;1.90;;;1.20;;
19004;SDS011;9635;52.078;8.648;2022-09-09T18:08:51;4.10;;;1.45;;
19004;SDS011;9635;52.078;8.648;2022-09-09T18:13:57;5.05;;;1.90;;
19004;SDS011;9635;52.078;8.648;2022-09-09T18:19:02;3.25;;;1.63;;
19004;SDS011;9635;52.078;8.648;2022-09-09T18:24:08;2.53;;;0.95;;
19004;SDS011;9635;52.078;8.648;2022-09-09T18:29:12;5.20;;;1.30;;
19004;SDS011;9635;52.078;8.648;2022-09-09T18:34:17;2.63;;;1.20;;
19004;SDS011;9635;52.078;8.648;2022-09-09T18:39:24;1.48;;;0.93;;
19004;SDS011;9635;52.078;8.648;2022-09-09T18:44:30;1.92;;;1.40;;
19004;SDS011;9635;52.078;8.648;2022-09-09T18:49:34;2.53;;;0.90;;
19004;SDS011;9635;52.078;8.648;2022-09-09T18:54:39;2.05;;;0.70;;
19004;SDS011;9635;52.078;8.648;2022-09-09T18:59:46;2.42;;;0.70;;
19004;SDS011;9635;52.078;8.648;2022-09-09T19:04:49;0.85;;;0.63;;
19004;SDS011;9635;52.078;8.648;2022-09-09T19:09:53;3.40;;;0.70;;
19004;SDS011;9635;52.078;8.648;2022-09-09T19:14:56;1.60;;;0.80;;
19004;SDS011;9635;52.078;8.648;2022-09-09T19:20:00;2.50;;;0.90;;
19004;SDS011;9635;52.078;8.648;2022-09-09T19:25:05;1.95;;;0.73;;
19004;SDS011;9635;52.078;8.648;2022-09-09T19:30:09;1.52;;;0.98;;
19004;SDS011;9635;52.078;8.648;2022-09-09T19:35:13;2.25;;;0.90;;
19004;SDS011;9635;52.078;8.648;2022-09-09T19:40:18;2.00;;;1.10;;
19004;SDS011;9635;52.078;8.648;2022-09-09T19:45:22;2.80;;;1.00;;
19004;SDS011;9635;52.078;8.648;2022-09-09T19:50:25;2.03;;;0.90;;
19004;SDS011;9635;52.078;8.648;2022-09-09T19:55:30;1.88;;;0.80;;
19004;SDS011;9635;52.078;8.648;2022-09-09T20:00:35;3.90;;;1.20;;
19004;SDS011;9635;52.078;8.648;2022-09-09T20:05:40;3.22;;;0.95;;
19004;SDS011;9635;52.078;8.648;2022-09-09T20:10:50;2.25;;;1.00;;
19004;SDS011;9635;52.078;8.648;2022-09-09T20:15:55;2.17;;;1.20;;
19004;SDS011;9635;52.078;8.648;2022-09-09T20:21:01;2.78;;;0.75;;
19004;SDS011;9635;52.078;8.648;2022-09-09T20:26:08;1.92;;;0.80;;
19004;SDS011;9635;52.078;8.648;2022-09-09T20:31:13;2.63;;;0.80;;
19004;SDS011;9635;52.078;8.648;2022-09-09T20:36:18;1.60;;;0.75;;
19004;SDS011;9635;52.078;8.648;2022-09-09T20:41:25;1.80;;;1.20;;
19004;SDS011;9635;52.078;8.648;2022-09-09T20:46:30;2.00;;;1.55;;
19004;SDS011;9635;52.078;8.648;2022-09-09T20:51:35;5.45;;;1.20;;
19004;SDS011;9635;52.078;8.648;2022-09-09T20:56:41;2.97;;;1.15;;
19004;SDS011;9635;52.078;8.648;2022-09-09T21:01:45;4.65;;;1.05;;
19004;SDS011;9635;52.078;8.648;2022-09-09T21:06:49;1.30;;;0.88;;
19004;SDS011;9635;52.078;8.648;2022-09-09T21:11:53;1.67;;;1.10;;
19004;SDS011;9635;52.078;8.648;2022-09-09T21:16:56;1.48;;;1.00;;
19004;SDS011;9635;52.078;8.648;2022-09-09T21:21:59;2.35;;;0.90;;
19004;SDS011;9635;52.078;8.648;2022-09-09T21:27:03;2.55;;;1.02;;
19004;SDS011;9635;52.078;8.648;2022-09-09T21:32:06;2.28;;;1.15;;
19004;SDS011;9635;52.078;8.648;2022-09-09T21:37:09;3.10;;;1.08;;
19004;SDS011;9635;52.078;8.648;2022-09-09T21:42:13;1.13;;;0.93;;
19004;SDS011;9635;52.078;8.648;2022-09-09T21:47:16;3.13;;;1.30;;
19004;SDS011;9635;52.078;8.648;2022-09-09T21:52:19;2.55;;;1.08;;
19004;SDS011;9635;52.078;8.648;2022-09-09T21:57:23;2.90;;;1.20;;
19004;SDS011;9635;52.078;8.648;2022-09-09T22:02:26;1.50;;;1.00;;
19004;SDS011;9635;52.078;8.648;2022-09-09T22:07:29;1.30;;;1.10;;
19004;SDS011;9635;52.078;8.648;2022-09-09T22:12:34;1.67;;;0.80;;
19004;SDS011;9635;52.078;8.648;2022-09-09T22:17:38;2.35;;;1.00;;
19004;SDS011;9635;52.078;8.648;2022-09-09T22:22:41;2.80;;;1.20;;
19004;SDS011;9635;52.078;8.648;2022-09-09T22:27:45;3.05;;;1.38;;
19004;SDS011;9635;52.078;8.648;2022-09-09T22:32:48;4.13;;;1.17;;
19004;SDS011;9635;52.078;8.648;2022-09-09T22:37:51;2.42;;;1.23;;
19004;SDS011;9635;52.078;8.648;2022-09-09T22:42:57;1.38;;;1.10;;
19004;SDS011;9635;52.078;8.648;2022-09-09T22:48:00;3.22;;;1.38;;
19004;SDS011;9635;52.078;8.648;2022-09-09T22:53:03;3.30;;;1.55;;
19004;SDS011;9635;52.078;8.648;2022-09-09T22:58:07;2.97;;;1.23;;
19004;SDS011;9635;52.078;8.648;2022-09-09T23:03:11;4.57;;;1.23;;
19004;SDS011;9635;52.078;8.648;2022-09-09T23:08:14;2.85;;;1.17;;
19004;SDS011;9635;52.078;8.648;2022-09-09T23:13:20;3.28;;;1.75;;
19004;SDS011;9635;52.078;8.648;2022-09-09T23:18:24;3.90;;;1.33;;
19004;SDS011;9635;52.078;8.648;2022-09-09T23:23:27;2.90;;;1.30;;
19004;SDS011;9635;52.078;8.648;2022-09-09T23:28:31;2.55;;;1.60;;
19004;SDS011;9635;52.078;8.648;2022-09-09T23:33:35;2.35;;;1.48;;
19004;SDS011;9635;52.078;8.648;2022-09-09T23:38:38;2.35;;;1.42;;
19004;SDS011;9635;52.078;8.648;2022-09-09T23:43:43;2.20;;;1.35;;
19004;SDS011;9635;52.078;8.648;2022-09-09T23:48:46;4.20;;;1.70;;
19004;SDS011;9635;52.078;8.648;2022-09-09T23:53:51;4.00;;;1.70;;
19004;SDS011;9635;52.078;8.648;2022-09-09T23:58:58;3.50;;;1.50;;
